Terminal Aerodrome Forecast
Issued by NWS

Home | Current Version | Previous Version | Text Only | Print | Product List | Glossary On
Versions: 1 2 3 4 5 6 7 8 9 10 11 12 13 14 15 16 17 18 19 20 21 22 23 24 25 26 27 28 29 30 31 32
000
FTUS41 KRLX 290901 AAE
TAFCKB
TAF AMD
KCKB 290901Z 2909/3006 15005KT P6SM SHRA VCTS OVC050CB
     FM290930 VRB10G30KT 2SM TSRA BKN035CB
     FM291300 22004KT P6SM VCTS BKN080CB
     FM291900 25004KT P6SM SCT200=

USA.gov is the U.S. government's official web portal to all federal, state and local government web resources and services.